Time;durP1;ratioP1;P1;durP2;ratioP2;P2;SDS_P1;SDS_P2;PMS_P1;PMS_P2;Temp;Humidity;BMP_temperature;BMP_pressure;BME280_temperature;BME280_humidity;BME280_pressure;Samples;Min_cycle;Max_cycle;Signal;HPM_P1;HPM_P2
2022/06/06 00:02:30;;;;;;;55.75;27.40;;;;;;;18.05;100.00;100454.13;8271274;28;20069;-64
2022/06/06 00:06:31;;;;;;;61.53;28.27;;;;;;;18.09;100.00;100447.25;8256049;28;20035;-64
2022/06/06 00:10:31;;;;;;;58.97;27.50;;;;;;;18.07;100.00;100453.94;8256316;28;20431;-64
2022/06/06 00:14:32;;;;;;;50.33;24.83;;;;;;;18.08;100.00;100442.78;8256350;28;20503;-64
2022/06/06 00:18:33;;;;;;;41.03;20.98;;;;;;;18.04;100.00;100441.47;8255905;28;20625;-65
2022/06/06 00:22:34;;;;;;;36.00;18.25;;;;;;;18.06;100.00;100447.63;8271410;28;20118;-65
2022/06/06 00:26:35;;;;;;;34.23;17.40;;;;;;;17.97;100.00;100440.56;8256656;28;20034;-65
2022/06/06 00:30:35;;;;;;;34.78;17.75;;;;;;;17.94;100.00;100451.88;8270837;28;20277;-64
2022/06/06 00:35:07;;;;;;;34.55;18.15;;;;;;;17.86;100.00;100451.97;8255154;28;20429;-64
2022/06/06 00:38:56;;;;;;;34.83;17.58;;;;;;;17.82;100.00;100453.38;8257945;28;20522;-64
2022/06/06 00:42:57;;;;;;;34.83;18.38;;;;;;;17.80;100.00;100449.97;8256210;28;20469;-65
2022/06/06 00:47:09;;;;;;;35.15;18.98;;;;;;;17.78;100.00;100457.50;8271644;28;20046;-65
2022/06/06 00:51:13;;;;;;;37.90;19.55;;;;;;;17.77;100.00;100450.34;8261823;28;20092;-64
2022/06/06 00:55:18;;;;;;;39.28;21.05;;;;;;;17.77;100.00;100453.09;8261094;28;20042;-64
2022/06/06 00:59:25;;;;;;;44.05;22.58;;;;;;;17.76;100.00;100454.13;8260198;28;20476;-65
2022/06/06 01:03:27;;;;;;;46.05;22.80;;;;;;;17.76;100.00;100458.75;8249592;28;20069;-64
2022/06/06 01:07:28;;;;;;;37.95;21.92;;;;;;;17.73;100.00;100457.25;8261071;28;20440;-64
2022/06/06 01:11:29;;;;;;;42.63;21.52;;;;;;;17.73;100.00;100454.53;8262166;28;20395;-65
2022/06/06 01:15:40;;;;;;;43.83;21.95;;;;;;;17.79;100.00;100461.97;8260661;28;20061;-64
2022/06/06 01:20:00;;;;;;;35.72;18.80;;;;;;;17.81;100.00;100461.78;8256761;28;20030;-64
2022/06/06 01:32:42;;;;;;;35.33;17.50;;;;;;;17.72;100.00;100452.81;8402463;27;20440;-64
2022/06/06 01:36:49;;;;;;;26.13;13.23;;;;;;;17.68;100.00;100451.47;8383685;28;20036;-64
2022/06/06 01:41:05;;;;;;;24.15;12.90;;;;;;;17.65;100.00;100440.91;8408497;28;20067;-64
2022/06/06 01:45:23;;;;;;;19.05;11.60;;;;;;;17.65;100.00;100443.66;8395067;28;20056;-64
2022/06/06 01:49:24;;;;;;;17.58;10.50;;;;;;;17.67;100.00;100441.59;8386920;28;20055;-64
2022/06/06 01:53:25;;;;;;;17.13;9.95;;;;;;;17.62;100.00;100424.88;8408189;28;20169;-64
2022/06/06 01:57:26;;;;;;;21.08;10.25;;;;;;;17.54;100.00;100422.25;8397210;28;20163;-64
2022/06/06 02:01:27;;;;;;;16.48;10.43;;;;;;;17.45;100.00;100428.84;8414845;28;20090;-64
2022/06/06 02:05:28;;;;;;;18.77;11.07;;;;;;;17.35;100.00;100428.22;8415837;28;20077;-64
2022/06/06 02:09:31;;;;;;;18.10;10.98;;;;;;;17.33;100.00;100431.13;8414326;28;20078;-64
2022/06/06 02:13:32;;;;;;;17.10;10.33;;;;;;;17.24;100.00;100431.41;8410825;28;20047;-64
2022/06/06 02:17:32;;;;;;;16.98;10.23;;;;;;;17.17;100.00;100430.47;8385555;28;20044;-64
2022/06/06 02:21:33;;;;;;;17.00;9.70;;;;;;;17.06;100.00;100439.09;8393953;28;20040;-64
2022/06/06 02:25:34;;;;;;;18.40;10.13;;;;;;;16.97;100.00;100430.13;8414843;28;20570;-64
2022/06/06 02:29:34;;;;;;;19.08;11.23;;;;;;;16.88;100.00;100438.56;8414256;28;20036;-64
2022/06/06 02:33:36;;;;;;;16.65;10.10;;;;;;;16.80;100.00;100441.38;8414393;28;20044;-64
2022/06/06 02:37:36;;;;;;;16.73;10.85;;;;;;;16.80;100.00;100438.66;8413741;28;20041;-64
2022/06/06 02:41:36;;;;;;;17.08;10.45;;;;;;;16.82;100.00;100433.84;8420452;28;20036;-64
2022/06/06 02:45:38;;;;;;;16.48;9.57;;;;;;;16.88;100.00;100435.84;8390590;28;20048;-64
2022/06/06 02:49:38;;;;;;;17.48;8.70;;;;;;;16.95;100.00;100439.53;8368262;28;20037;-64
2022/06/06 02:53:39;;;;;;;19.38;9.00;;;;;;;16.98;100.00;100437.28;8386725;28;20052;-64
2022/06/06 02:57:42;;;;;;;11.27;7.22;;;;;;;17.06;100.00;100433.63;8355671;28;20044;-64
2022/06/06 03:01:42;;;;;;;11.18;6.90;;;;;;;16.99;100.00;100422.59;8356902;28;20435;-64
2022/06/06 03:15:00;;;;;;;13.52;7.35;;;;;;;16.54;100.00;100422.63;8412715;27;20360;-64
2022/06/06 03:20:46;;;;;;;12.05;7.40;;;;;;;16.46;100.00;100432.72;8414878;28;20037;-64
2022/06/06 03:24:24;;;;;;;12.02;7.20;;;;;;;16.33;100.00;100424.25;8385177;28;20040;-64
2022/06/06 03:28:48;;;;;;;9.68;6.95;;;;;;;16.30;100.00;100430.06;8382986;28;20338;-64
2022/06/06 03:37:43;;;;;;;11.88;7.18;;;;;;;16.21;100.00;100447.50;8317868;27;20457;-64
2022/06/06 03:42:07;;;;;;;12.05;7.32;;;;;;;16.29;100.00;100451.06;8310822;28;20033;-64
2022/06/06 03:46:47;;;;;;;13.30;7.50;;;;;;;16.38;100.00;100454.59;8316929;28;20041;-65
2022/06/06 03:51:17;;;;;;;11.98;6.85;;;;;;;16.45;100.00;100445.53;8316223;28;20045;-64
2022/06/06 03:55:41;;;;;;;13.23;6.65;;;;;;;16.55;99.94;100442.56;8315893;28;20502;-64
2022/06/06 03:59:43;;;;;;;8.25;5.88;;;;;;;16.64;97.58;100458.72;8303640;28;20288;-64
2022/06/06 04:03:45;;;;;;;11.88;6.82;;;;;;;16.74;95.92;100463.94;8311073;28;20041;-65
2022/06/06 04:07:46;;;;;;;9.73;6.85;;;;;;;16.87;95.64;100467.75;8314488;28;20030;-64
2022/06/06 04:12:20;;;;;;;8.15;5.93;;;;;;;16.98;94.72;100466.47;8315802;28;20050;-64
2022/06/06 04:17:00;;;;;;;9.23;5.75;;;;;;;17.10;94.32;100470.47;8316802;28;20029;-65
2022/06/06 04:21:31;;;;;;;9.75;6.47;;;;;;;17.03;95.11;100470.38;8316582;28;20041;-64
2022/06/06 04:30:42;;;;;;;7.03;5.72;;;;;;;16.88;97.30;100468.59;8390745;27;21423;-63
2022/06/06 04:39:09;;;;;;;10.75;6.03;;;;;;;16.86;97.89;100481.59;8386350;27;20431;-64
2022/06/06 04:43:33;;;;;;;11.00;6.95;;;;;;;16.89;98.41;100487.53;8363048;28;20497;-64
2022/06/06 04:47:39;;;;;;;8.50;5.80;;;;;;;16.91;98.92;100481.91;8328327;28;20463;-64
2022/06/06 04:51:43;;;;;;;10.48;6.35;;;;;;;16.95;99.23;100485.94;8336090;28;20490;-64
2022/06/06 04:55:47;;;;;;;9.40;6.03;;;;;;;16.99;98.01;100481.84;8311903;28;20046;-64
2022/06/06 04:59:48;;;;;;;10.05;6.55;;;;;;;16.97;98.80;100484.75;8335743;28;20495;-64
2022/06/06 05:03:49;;;;;;;10.15;5.80;;;;;;;16.98;97.99;100501.97;8317433;28;20494;-64
2022/06/06 05:08:23;;;;;;;8.43;5.22;;;;;;;16.93;98.01;100510.72;8316600;28;20461;-64
2022/06/06 05:12:43;;;;;;;9.13;4.90;;;;;;;16.92;98.31;100511.75;8337616;28;20045;-64
2022/06/06 05:21:49;;;;;;;8.38;4.45;;;;;;;17.39;94.72;100501.47;8399763;27;20408;-64
2022/06/06 05:30:15;;;;;;;6.28;4.18;;;;;;;17.79;91.96;100505.72;8392681;27;20599;-64
2022/06/06 05:34:21;;;;;;;7.30;4.38;;;;;;;17.94;89.32;100501.13;8376447;28;20052;-64
2022/06/06 05:38:33;;;;;;;6.60;4.20;;;;;;;18.04;87.12;100509.88;8376497;28;20037;-64
2022/06/06 05:43:01;;;;;;;6.50;3.40;;;;;;;18.38;85.52;100526.59;8383266;28;20442;-64
2022/06/06 05:47:31;;;;;;;5.22;3.72;;;;;;;18.56;83.71;100535.28;8380106;28;20051;-64
2022/06/06 05:52:11;;;;;;;5.65;3.53;;;;;;;18.37;83.52;100530.41;8380849;28;20128;-64
2022/06/06 05:56:34;;;;;;;4.70;3.00;;;;;;;17.92;82.09;100536.00;8381872;28;23935;-64
2022/06/06 06:01:08;;;;;;;5.20;2.77;;;;;;;18.31;83.85;100524.78;8381892;28;20044;-64
2022/06/06 06:05:37;;;;;;;3.88;2.58;;;;;;;18.83;79.17;100531.81;8379078;28;20048;-64
2022/06/06 06:23:00;;;;;;;2.10;1.80;;;;;;;18.81;73.12;100533.88;8414033;27;20348;-64
2022/06/06 06:27:03;;;;;;;2.90;1.90;;;;;;;18.50;74.54;100530.56;8415520;28;20040;-64
2022/06/06 06:31:32;;;;;;;5.60;1.88;;;;;;;18.52;75.10;100539.44;8414588;28;20055;-64
2022/06/06 06:36:00;;;;;;;2.78;1.77;;;;;;;18.86;74.86;100536.91;8392189;28;20059;-64
2022/06/06 06:40:29;;;;;;;2.85;1.50;;;;;;;18.38;75.83;100553.97;8361595;28;20086;-64
2022/06/06 06:44:34;;;;;;;3.10;1.58;;;;;;;18.36;75.37;100561.50;8377354;28;20394;-64
2022/06/06 06:48:38;;;;;;;2.95;1.63;;;;;;;18.97;74.29;100552.81;8382038;28;20029;-64
2022/06/06 06:53:05;;;;;;;2.63;1.27;;;;;;;19.21;72.91;100568.91;8361700;28;20068;-64
2022/06/06 06:57:29;;;;;;;3.67;1.38;;;;;;;19.52;70.60;100570.50;8380729;28;20558;-65
2022/06/06 07:01:35;;;;;;;;;;;;;;;19.37;70.47;100563.19;8405247;28;20456;-64
2022/06/06 07:10:47;;;;;;;2.05;1.33;;;;;;;19.75;68.41;100566.50;8371647;28;20082;-65
2022/06/06 07:15:27;;;;;;;2.03;1.45;;;;;;;19.82;68.38;100550.94;8381230;28;20559;-65
2022/06/06 07:19:34;;;;;;;3.85;1.00;;;;;;;19.93;66.32;100558.63;8382876;28;20049;-65
2022/06/06 07:23:39;;;;;;;2.33;1.20;;;;;;;20.12;67.08;100557.06;8386826;28;20036;-65
2022/06/06 07:27:40;;;;;;;3.17;0.90;;;;;;;20.37;65.95;100561.06;8377095;28;20102;-65
2022/06/06 07:36:20;;;;;;;3.60;0.95;;;;;;;20.49;65.17;100560.28;8302151;28;20832;-64
2022/06/06 07:40:38;;;;;;;1.58;0.93;;;;;;;20.61;64.84;100560.53;8292266;28;20145;-64
2022/06/06 07:45:18;;;;;;;1.77;0.52;;;;;;;20.89;63.50;100558.56;8287701;28;20061;-65
2022/06/06 07:49:42;;;;;;;2.58;0.60;;;;;;;20.81;63.18;100556.84;8294729;28;20064;-64
2022/06/06 07:54:10;;;;;;;0.60;0.50;;;;;;;20.65;63.62;100554.44;8293944;28;20180;-64
2022/06/06 07:58:20;;;;;;;1.13;0.70;;;;;;;20.77;64.78;100540.97;8283795;28;20166;-64
2022/06/06 08:02:41;;;;;;;4.32;1.00;;;;;;;20.79;63.30;100538.84;8282956;28;20034;-64
2022/06/06 08:07:13;;;;;;;0.90;0.70;;;;;;;20.77;62.71;100532.72;8284297;28;22161;-64
2022/06/06 08:11:29;;;;;;;1.80;0.70;;;;;;;21.26;62.34;100538.81;8300133;28;20053;-64
2022/06/06 08:24:30;;;;;;;2.95;0.93;;;;;;;21.58;58.64;100538.00;8407648;27;20364;-64
2022/06/06 08:28:32;;;;;;;1.55;0.55;;;;;;;22.42;57.88;100545.31;8411683;28;20043;-64
2022/06/06 08:32:33;;;;;;;0.65;0.45;;;;;;;22.44;57.80;100543.19;8408129;28;20475;-64
2022/06/06 08:36:57;;;;;;;2.67;0.50;;;;;;;22.20;58.16;100541.13;8404299;28;20408;-64
2022/06/06 08:41:13;;;;;;;2.05;0.50;;;;;;;22.06;57.76;100531.22;8409001;28;20064;-64
2022/06/06 08:45:44;;;;;;;1.02;0.63;;;;;;;22.54;58.55;100527.09;8407985;27;20040;-64
2022/06/06 08:58:51;;;;;;;1.00;0.50;;;;;;;22.98;56.75;100507.81;8391858;27;20397;-65
2022/06/06 09:03:15;;;;;;;5.03;0.70;;;;;;;23.18;56.64;100508.50;8383157;27;20091;-65
2022/06/06 09:07:51;;;;;;;1.17;0.50;;;;;;;22.76;59.82;100502.84;8377414;28;20045;-65
2022/06/06 09:12:31;;;;;;;0.60;0.40;;;;;;;22.28;59.34;100510.63;8386293;28;20374;-65
2022/06/06 09:16:57;;;;;;;3.03;0.93;;;;;;;21.64;62.95;100515.13;8376527;28;20083;-65
2022/06/06 09:21:28;;;;;;;3.30;0.70;;;;;;;20.55;69.01;100534.72;8380211;28;20036;-65
2022/06/06 09:30:18;;;;;;;1.75;0.70;;;;;;;19.97;74.33;100528.91;8412278;27;20688;-63
2022/06/06 09:34:46;;;;;;;4.07;1.00;;;;;;;20.48;71.53;100530.25;8408425;28;20066;-64
2022/06/06 09:39:07;;;;;;;1.00;0.80;;;;;;;21.26;70.31;100536.06;8406494;28;20403;-64
2022/06/06 09:43:39;;;;;;;1.63;0.77;;;;;;;20.71;71.07;100536.28;8402392;28;20323;-64
2022/06/06 09:48:19;;;;;;;1.38;0.65;;;;;;;20.28;70.99;100545.81;8403858;28;20037;-64
2022/06/06 10:06:34;;;;;;;1.58;0.80;;;;;;;19.93;74.06;100541.31;8378993;27;20855;-64
2022/06/06 10:11:14;;;;;;;2.20;0.70;;;;;;;19.91;74.13;100538.75;8376392;28;20048;-64
2022/06/06 10:15:31;;;;;;;2.88;0.90;;;;;;;19.98;76.96;100533.31;8373721;28;20086;-64
2022/06/06 10:20:01;;;;;;;1.67;0.50;;;;;;;19.78;73.30;100533.19;8356351;28;20132;-64
2022/06/06 10:24:34;;;;;;;1.80;0.45;;;;;;;19.96;69.81;100540.91;8373426;28;20533;-64
2022/06/06 10:29:08;;;;;;;1.07;0.60;;;;;;;20.67;69.32;100532.25;8370591;28;20041;-64
2022/06/06 10:33:24;;;;;;;0.52;0.40;;;;;;;20.59;67.55;100538.75;8372641;28;20036;-65
2022/06/06 10:37:47;;;;;;;3.28;0.55;;;;;;;20.27;69.86;100528.47;8372794;28;20106;-65
2022/06/06 10:42:00;;;;;;;0.93;0.60;;;;;;;20.35;67.86;100519.22;8372407;28;20045;-65
2022/06/06 10:46:10;;;;;;;1.03;0.50;;;;;;;20.91;67.16;100516.06;8340446;28;20279;-66
2022/06/06 10:50:18;;;;;;;2.03;0.82;;;;;;;21.38;66.59;100528.03;8342515;28;20444;-65
2022/06/06 10:59:11;;;;;;;1.23;0.40;;;;;;;22.14;64.83;100511.69;8372298;27;20461;-65
2022/06/06 11:03:51;;;;;;;1.25;0.30;;;;;;;24.58;58.74;100505.97;8377573;28;20033;-65
2022/06/06 11:08:32;;;;;;;1.25;0.32;;;;;;;27.32;51.79;100506.69;8384708;28;20047;-65
2022/06/06 11:22:00;;;;;;;1.33;0.57;;;;;;;28.54;48.07;100486.97;8301869;27;20495;-64
2022/06/06 11:26:28;;;;;;;0.98;0.40;;;;;;;27.73;48.93;100481.28;8275056;28;20042;-64
2022/06/06 11:31:08;;;;;;;2.55;0.60;;;;;;;27.00;49.84;100474.91;8265805;28;20070;-64
2022/06/06 11:35:27;;;;;;;0.93;0.60;;;;;;;26.37;51.32;100475.81;8282565;28;20034;-64
2022/06/06 11:39:59;;;;;;;1.40;0.60;;;;;;;27.68;48.85;100464.50;8279777;28;20648;-64
2022/06/06 11:44:34;;;;;;;3.03;0.77;;;;;;;27.88;47.86;100471.28;8276991;28;20046;-64
2022/06/06 11:53:28;;;;;;;2.10;0.50;;;;;;;25.57;50.45;100467.50;8331685;27;20394;-63
2022/06/06 11:58:08;;;;;;;1.27;0.30;;;;;;;23.69;51.15;100466.13;8342827;28;20075;-63
2022/06/06 12:07:02;;;;;;;1.23;0.40;;;;;;;26.95;46.68;100449.88;8287724;28;20446;-64
2022/06/06 12:16:11;;;;;;;1.83;0.60;;;;;;;23.73;53.37;100450.78;8370617;27;20392;-64
2022/06/06 12:20:32;;;;;;;2.97;0.52;;;;;;;23.40;56.02;100462.13;8327440;28;20493;-65
2022/06/06 12:24:57;;;;;;;8.90;0.98;;;;;;;23.05;56.60;100458.09;8345036;28;20067;-65
2022/06/06 12:29:23;;;;;;;0.70;0.50;;;;;;;23.02;56.35;100453.88;8327986;28;20523;-65
2022/06/06 12:33:33;;;;;;;3.60;0.60;;;;;;;23.32;56.97;100453.28;8336203;28;20045;-65
2022/06/06 12:37:51;;;;;;;3.65;0.60;;;;;;;22.83;57.38;100442.97;8330333;28;20095;-65
2022/06/06 12:42:08;;;;;;;3.22;0.95;;;;;;;22.89;60.07;100442.94;8332300;28;20037;-65
2022/06/06 12:46:36;;;;;;;0.50;0.47;;;;;;;22.86;58.12;100437.88;8348602;28;20432;-65
2022/06/06 12:51:00;;;;;;;4.70;0.60;;;;;;;22.80;59.95;100432.38;8349165;28;20106;-65
2022/06/06 12:59:39;;;;;;;2.55;0.50;;;;;;;23.24;57.21;100423.19;8378442;27;20785;-64
2022/06/06 13:08:48;;;;;;;0.93;0.40;;;;;;;23.24;56.44;100428.72;8317733;27;20370;-64
2022/06/06 13:17:48;;;;;;;3.58;0.43;;;;;;;23.09;55.39;100421.56;8290265;28;20481;-64
2022/06/06 13:22:19;;;;;;;2.95;0.60;;;;;;;23.32;55.12;100422.94;8275949;28;20046;-64
2022/06/06 13:35:30;;;;;;;1.45;0.55;;;;;;;23.17;53.48;100423.22;8349193;27;20468;-63
2022/06/06 13:40:00;;;;;;;1.27;0.40;;;;;;;23.19;54.52;100416.41;8337902;28;20046;-63
2022/06/06 13:58:48;;;;;;;1.25;0.65;;;;;;;23.32;52.31;100420.19;8372005;27;20455;-63
2022/06/06 14:03:10;;;;;;;1.13;0.50;;;;;;;23.58;53.33;100417.16;8333145;28;20048;-63
2022/06/06 14:07:38;;;;;;;2.22;0.60;;;;;;;23.54;50.82;100424.22;8323844;28;20041;-64
2022/06/06 14:11:56;;;;;;;3.90;0.57;;;;;;;23.41;52.73;100424.31;8328413;28;20041;-64
2022/06/06 14:15:57;;;;;;;5.75;0.40;;;;;;;23.18;53.44;100431.25;8323786;28;20053;-63
2022/06/06 14:20:10;;;;;;;2.75;0.80;;;;;;;23.24;53.64;100428.72;8346069;28;20147;-63
2022/06/06 14:24:15;;;;;;;1.15;0.63;;;;;;;23.27;52.34;100429.13;8346004;28;20147;-64
2022/06/06 14:28:22;;;;;;;1.50;0.50;;;;;;;23.33;51.27;100438.41;8328067;28;20049;-64
2022/06/06 14:32:32;;;;;;;1.17;0.38;;;;;;;23.10;53.90;100439.84;8359144;28;20033;-64
2022/06/06 14:36:33;;;;;;;2.58;0.40;;;;;;;22.76;54.18;100442.19;8333455;28;20048;-64
2022/06/06 14:45:00;;;;;;;0.98;0.40;;;;;;;22.68;55.53;100439.66;8368124;27;20383;-63
2022/06/06 14:49:01;;;;;;;2.33;0.50;;;;;;;22.88;55.16;100441.22;8348729;28;20044;-63
2022/06/06 14:53:08;;;;;;;1.20;0.50;;;;;;;22.80;52.96;100437.91;8366386;28;20047;-63
2022/06/06 14:57:12;;;;;;;2.63;0.60;;;;;;;22.97;53.73;100434.38;8330257;28;20043;-63
2022/06/06 15:01:18;;;;;;;1.70;0.47;;;;;;;22.81;53.27;100440.44;8343096;28;20473;-64
2022/06/06 15:05:25;;;;;;;6.35;0.50;;;;;;;22.69;53.62;100436.69;8335728;28;20090;-64
2022/06/06 15:14:07;;;;;;;1.35;0.40;;;;;;;22.40;53.93;100420.72;8314142;28;20400;-63
2022/06/06 15:18:09;;;;;;;0.80;0.60;;;;;;;22.49;56.18;100424.06;8304198;28;20127;-63
2022/06/06 15:22:18;;;;;;;2.13;0.40;;;;;;;22.55;55.41;100421.31;8336050;28;20527;-64
2022/06/06 15:26:31;;;;;;;1.42;0.40;;;;;;;22.69;54.13;100425.66;8317105;28;20045;-64
2022/06/06 15:30:49;;;;;;;0.98;0.57;;;;;;;22.48;55.60;100417.69;8296537;28;20033;-64
2022/06/06 15:35:20;;;;;;;5.25;0.65;;;;;;;22.65;55.16;100418.91;8308361;28;20538;-64
2022/06/06 15:39:42;;;;;;;2.63;0.55;;;;;;;22.78;55.88;100402.28;8306889;28;20042;-64
2022/06/06 15:48:23;;;;;;;1.63;0.38;;;;;;;22.61;51.97;100428.69;8363859;27;20778;-63
2022/06/06 15:52:43;;;;;;;2.95;0.32;;;;;;;22.38;52.64;100422.84;8327783;28;20203;-63
2022/06/06 15:56:57;;;;;;;2.65;0.40;;;;;;;22.59;54.22;100429.97;8318509;28;20096;-63
2022/06/06 16:01:14;;;;;;;1.25;0.65;;;;;;;22.27;56.02;100437.31;8326000;28;20553;-63
2022/06/06 16:05:21;;;;;;;2.25;0.47;;;;;;;22.17;55.73;100425.88;8336649;28;20068;-63
2022/06/06 16:09:54;;;;;;;2.80;1.08;;;;;;;22.15;56.20;100424.44;8335246;28;20055;-63
2022/06/06 16:14:13;;;;;;;4.13;0.60;;;;;;;22.15;56.04;100410.66;8329355;28;20052;-63
2022/06/06 16:18:25;;;;;;;1.88;0.60;;;;;;;22.39;56.04;100410.78;8331361;28;20049;-63
2022/06/06 16:22:49;;;;;;;3.17;0.50;;;;;;;22.28;55.97;100411.44;8335938;28;20068;-63
2022/06/06 16:26:58;;;;;;;2.33;0.40;;;;;;;22.06;56.11;100401.81;8309808;28;20045;-63
2022/06/06 16:31:00;;;;;;;1.23;0.40;;;;;;;21.95;57.76;100416.22;8304625;28;20049;-63
2022/06/06 16:35:32;;;;;;;1.48;0.40;;;;;;;22.23;55.28;100402.97;8334757;28;20034;-64
2022/06/06 16:39:52;;;;;;;0.55;0.50;;;;;;;22.25;55.07;100411.88;8317724;28;20033;-64
2022/06/06 16:48:54;;;;;;;1.27;0.50;;;;;;;21.78;56.76;100415.03;8325485;28;20049;-64
2022/06/06 17:01:49;;;;;;;2.25;0.45;;;;;;;21.86;58.31;100401.00;8352445;27;20464;-63
2022/06/06 17:10:33;;;;;;;4.13;0.60;;;;;;;21.83;57.33;100412.44;8316957;28;20073;-63
2022/06/06 17:14:35;;;;;;;1.98;0.75;;;;;;;21.78;58.95;100415.03;8315557;28;20125;-63
2022/06/06 17:18:36;;;;;;;1.63;0.38;;;;;;;21.72;59.02;100409.47;8313273;28;20472;-63
2022/06/06 17:22:37;;;;;;;1.95;0.65;;;;;;;21.63;57.54;100417.13;8315209;28;20057;-63
2022/06/06 17:26:41;;;;;;;3.05;0.50;;;;;;;21.56;58.97;100416.28;8313246;28;20091;-63
2022/06/06 17:31:09;;;;;;;0.75;0.40;;;;;;;21.43;59.00;100427.28;8313018;28;20536;-63
2022/06/06 17:39:37;;;;;;;5.43;0.40;;;;;;;21.40;59.14;100426.91;8303627;28;20618;-63
2022/06/06 17:44:09;;;;;;;3.15;0.85;;;;;;;21.42;59.87;100433.00;8283656;28;20609;-63
2022/06/06 17:48:49;;;;;;;1.13;0.40;;;;;;;21.31;59.24;100431.75;8288208;28;20050;-63
2022/06/06 17:53:16;;;;;;;1.25;0.52;;;;;;;21.23;60.88;100431.97;8333524;28;20096;-63
2022/06/06 17:57:34;;;;;;;1.77;0.65;;;;;;;21.06;63.04;100447.19;8349502;28;20041;-63
2022/06/06 18:02:15;;;;;;;1.73;0.90;;;;;;;21.07;62.79;100448.88;8341060;28;20476;-62
2022/06/06 18:06:55;;;;;;;1.08;0.40;;;;;;;20.91;63.50;100454.75;8334112;28;20052;-63
2022/06/06 18:11:25;;;;;;;0.60;0.50;;;;;;;20.91;63.84;100455.59;8334714;28;20057;-63
2022/06/06 18:15:51;;;;;;;2.35;0.57;;;;;;;20.83;64.14;100452.19;8332838;28;20038;-63
2022/06/06 18:19:52;;;;;;;1.50;0.50;;;;;;;20.73;64.60;100451.72;8333295;28;20433;-63
2022/06/06 18:24:01;;;;;;;4.63;0.60;;;;;;;20.67;65.01;100461.66;8335040;28;20041;-62
2022/06/06 18:28:04;;;;;;;2.15;0.80;;;;;;;20.64;66.04;100455.72;8332784;28;20087;-62
2022/06/06 18:32:37;;;;;;;0.73;0.60;;;;;;;20.60;66.12;100451.69;8337549;28;20521;-62
2022/06/06 18:36:40;;;;;;;3.13;1.10;;;;;;;20.49;66.50;100449.56;8308206;28;20196;-62
2022/06/06 18:40:44;;;;;;;4.75;1.15;;;;;;;20.49;66.25;100455.06;8330713;28;20049;-62
2022/06/06 18:44:50;;;;;;;;;;;;;;;20.41;66.08;100452.50;8332382;28;20160;-62
2022/06/06 18:53:17;;;;;;;4.03;0.80;;;;;;;20.30;67.07;100453.06;8385799;27;20394;-62
2022/06/06 18:57:19;;;;;;;2.28;0.90;;;;;;;20.21;67.40;100448.78;8372250;28;20067;-62
2022/06/06 19:01:26;;;;;;;5.32;0.80;;;;;;;20.14;68.27;100456.16;8349051;28;20392;-62
2022/06/06 19:05:31;;;;;;;1.08;0.60;;;;;;;20.12;68.41;100458.22;8349691;28;20685;-62
2022/06/06 19:09:36;;;;;;;2.67;0.57;;;;;;;20.03;68.57;100459.47;8361700;28;20104;-62
2022/06/06 19:13:36;;;;;;;3.28;0.77;;;;;;;19.98;68.08;100470.19;8362309;28;20670;-62
2022/06/06 19:17:44;;;;;;;2.35;1.20;;;;;;;19.90;68.37;100464.84;8371110;28;20036;-62
2022/06/06 19:21:45;;;;;;;4.25;0.90;;;;;;;19.81;69.07;100460.56;8364636;28;20489;-62
2022/06/06 19:25:52;;;;;;;3.05;0.77;;;;;;;19.74;68.36;100460.56;8351914;28;20123;-62
2022/06/06 19:29:53;;;;;;;3.08;0.70;;;;;;;19.74;68.65;100456.94;8363100;28;20494;-62
2022/06/06 19:34:14;;;;;;;1.73;0.90;;;;;;;19.66;68.96;100468.06;8342805;28;20401;-63
2022/06/06 19:38:19;;;;;;;1.83;0.93;;;;;;;19.62;69.58;100472.28;8341767;28;20045;-63
2022/06/06 19:42:46;;;;;;;2.72;0.80;;;;;;;19.54;69.22;100469.69;8355573;28;20067;-63
2022/06/06 19:46:52;;;;;;;2.08;1.23;;;;;;;19.52;69.41;100466.28;8367338;28;20086;-63
2022/06/06 19:50:58;;;;;;;2.67;0.60;;;;;;;19.48;69.05;100469.44;8373851;28;20063;-63
2022/06/06 19:55:13;;;;;;;1.70;0.70;;;;;;;19.44;69.29;100470.03;8380407;28;20032;-63
2022/06/06 19:59:19;;;;;;;7.05;0.80;;;;;;;19.42;68.75;100472.97;8379553;28;20554;-63
2022/06/06 20:03:23;;;;;;;2.78;0.70;;;;;;;19.41;69.47;100487.75;8365582;28;20106;-64
2022/06/06 20:07:32;;;;;;;2.40;0.77;;;;;;;19.32;69.24;100483.44;8357464;28;20099;-63
2022/06/06 20:11:44;;;;;;;1.90;0.90;;;;;;;19.26;69.38;100486.97;8358335;28;20041;-63
2022/06/06 20:15:45;;;;;;;1.13;0.70;;;;;;;19.26;69.40;100481.47;8357298;28;20037;-63
2022/06/06 20:19:48;;;;;;;2.17;0.98;;;;;;;19.25;68.75;100485.22;8356275;28;20465;-63
2022/06/06 20:23:50;;;;;;;2.83;0.77;;;;;;;19.18;69.43;100487.06;8357608;28;20489;-63
2022/06/06 20:27:58;;;;;;;3.13;0.93;;;;;;;19.17;68.55;100479.91;8357096;28;20029;-63
2022/06/06 20:32:17;;;;;;;2.85;0.70;;;;;;;19.12;68.98;100476.88;8358383;28;20029;-63
2022/06/06 20:36:21;;;;;;;2.30;0.70;;;;;;;19.08;69.45;100475.59;8356328;28;20071;-63
2022/06/06 20:40:23;;;;;;;1.33;0.77;;;;;;;19.05;69.42;100475.97;8357308;28;20056;-63
2022/06/06 20:44:29;;;;;;;2.00;0.75;;;;;;;18.95;70.19;100478.19;8357130;28;20049;-63
2022/06/06 20:53:00;;;;;;;4.82;0.93;;;;;;;18.82;71.32;100467.09;8341175;27;20967;-62
2022/06/06 20:57:29;;;;;;;4.72;0.77;;;;;;;18.76;71.37;100465.13;8336635;28;20034;-62
2022/06/06 21:01:32;;;;;;;4.30;1.00;;;;;;;18.74;71.98;100467.22;8319713;28;20501;-62
2022/06/06 21:05:41;;;;;;;1.20;0.70;;;;;;;18.68;72.04;100468.00;8316098;28;20272;-62
2022/06/06 21:09:41;;;;;;;2.30;0.77;;;;;;;18.60;73.14;100459.91;8315028;28;20652;-62
2022/06/06 21:13:42;;;;;;;1.38;0.90;;;;;;;18.60;72.68;100459.06;8337819;28;20034;-62
2022/06/06 21:17:42;;;;;;;2.30;0.88;;;;;;;18.51;74.17;100454.75;8330409;28;20034;-62
2022/06/06 21:21:49;;;;;;;1.40;0.70;;;;;;;18.45;74.65;100450.88;8326604;28;20042;-62
2022/06/06 21:25:50;;;;;;;3.10;0.77;;;;;;;18.44;76.23;100454.66;8315572;28;20049;-62
2022/06/06 21:29:51;;;;;;;2.22;0.90;;;;;;;18.35;76.42;100444.81;8309609;28;20037;-62
2022/06/06 21:33:52;;;;;;;2.38;1.33;;;;;;;18.33;76.05;100444.16;8317877;28;20149;-62
2022/06/06 21:37:52;;;;;;;2.37;0.90;;;;;;;18.40;75.78;100441.53;8317296;28;20083;-62
2022/06/06 21:41:52;;;;;;;3.13;1.20;;;;;;;18.24;75.49;100433.53;8315966;28;20601;-62
2022/06/06 21:45:58;;;;;;;2.00;1.10;;;;;;;18.10;76.54;100446.19;8315822;28;20060;-62
2022/06/06 21:49:59;;;;;;;2.67;0.90;;;;;;;18.00;76.98;100448.38;8310463;28;20049;-62
2022/06/06 21:54:06;;;;;;;2.50;0.80;;;;;;;17.77;77.63;100447.63;8314587;28;20045;-62
2022/06/06 21:58:06;;;;;;;1.52;1.23;;;;;;;17.60;79.41;100444.22;8315220;28;20740;-62
2022/06/06 22:02:08;;;;;;;4.70;1.20;;;;;;;17.43;80.50;100455.50;8306872;28;20042;-62
2022/06/06 22:06:08;;;;;;;3.17;1.75;;;;;;;17.17;82.03;100441.41;8293736;28;20280;-62
2022/06/06 22:10:09;;;;;;;5.95;1.58;;;;;;;17.16;82.29;100447.88;8288257;28;20042;-62
2022/06/06 22:14:11;;;;;;;4.25;1.17;;;;;;;17.01;83.21;100441.53;8295996;28;20050;-62
2022/06/06 22:18:12;;;;;;;3.05;1.30;;;;;;;17.01;83.98;100444.25;8288611;28;20405;-62
2022/06/06 22:22:12;;;;;;;2.83;1.20;;;;;;;16.95;83.87;100444.97;8286122;28;20087;-62
2022/06/06 22:26:13;;;;;;;1.80;1.23;;;;;;;17.05;82.20;100442.88;8293742;28;20041;-62
2022/06/06 22:30:14;;;;;;;3.70;1.15;;;;;;;17.10;81.92;100448.63;8290528;28;20485;-62
2022/06/06 22:34:14;;;;;;;2.10;1.20;;;;;;;17.15;80.37;100443.47;8309685;28;20064;-62
2022/06/06 22:38:15;;;;;;;5.97;1.40;;;;;;;17.17;79.62;100435.94;8294436;28;20498;-62
2022/06/06 22:42:16;;;;;;;3.63;1.48;;;;;;;17.20;79.14;100441.03;8302240;28;20049;-62
2022/06/06 22:46:17;;;;;;;2.60;1.20;;;;;;;17.00;80.49;100445.28;8324438;28;20433;-62
2022/06/06 22:50:17;;;;;;;5.38;1.40;;;;;;;17.02;79.71;100438.59;8323796;28;20041;-62
2022/06/06 22:54:18;;;;;;;5.85;1.50;;;;;;;16.94;80.00;100437.84;8292566;28;20045;-62
2022/06/06 22:58:19;;;;;;;2.15;1.20;;;;;;;16.91;80.25;100438.19;8294102;28;20044;-62
2022/06/06 23:02:19;;;;;;;1.73;1.17;;;;;;;16.79;80.39;100442.38;8294113;28;20065;-63